Terminal Aerodrome Forecast
Issued by NWS

Home | Current Version | Previous Version | Text Only | Print | Product List | Glossary Off
Versions: 1 2 3 4 5 6 7 8 9 10 11 12 13 14 15

000
FTUS42 KMHX 252300 RRA
TAFPGV
TAF
KPGV 252358Z 2600/2624 VRB04KT 5SM -RA BR SCT005 OVC015
      TEMPO 2603/2606 -RA BR OVC009
     FM260600 04005KT 4SM -RA BR OVC009
     FM261600 33010G15KT P6SM VCSH OVC020
     FM262000 32008KT P6SM BKN015 BKN050
      AMD LTD TO CLD VIS AND WIND=

USA.gov is the U.S. government's official web portal to all federal, state and local government web resources and services.